Time;durP1;ratioP1;P1;durP2;ratioP2;P2;SDS_P1;SDS_P2;PMS_P1;PMS_P2;Temp;Humidity;BMP_temperature;BMP_pressure;BME280_temperature;BME280_humidity;BME280_pressure;Samples;Min_cycle;Max_cycle;Signal;HPM_P1;HPM_P2
2021/09/15 00:02:21;;;;;;;22.73;13.27;;;17.40;99.90;;;;;;5034459;28;20049;-94
2021/09/15 00:04:46;;;;;;;20.70;13.57;;;17.40;99.90;;;;;;5014935;28;20064;-94
2021/09/15 00:07:12;;;;;;;27.95;14.27;;;17.40;99.90;;;;;;5015112;28;20084;-95
2021/09/15 00:09:38;;;;;;;22.05;13.57;;;17.40;99.90;;;;;;5047119;28;20052;-95
2021/09/15 00:12:03;;;;;;;17.88;13.60;;;17.40;99.90;;;;;;5047640;28;20045;-95
2021/09/15 00:14:29;;;;;;;14.82;13.00;;;17.40;99.90;;;;;;5014599;28;20053;-95
2021/09/15 00:16:55;;;;;;;29.60;13.48;;;17.40;99.90;;;;;;5048357;28;20375;-96
2021/09/15 00:19:20;;;;;;;20.20;13.98;;;17.40;99.90;;;;;;5000779;28;20163;-92
2021/09/15 00:21:46;;;;;;;16.05;13.85;;;17.40;99.90;;;;;;5040410;28;20057;-95
2021/09/15 00:24:12;;;;;;;17.25;14.32;;;17.40;99.90;;;;;;5023967;28;20050;-94
2021/09/15 00:26:37;;;;;;;20.95;14.32;;;17.40;99.90;;;;;;4994334;28;20057;-94
2021/09/15 00:29:03;;;;;;;19.02;14.02;;;17.40;99.90;;;;;;5038151;28;20107;-95
2021/09/15 00:31:29;;;;;;;18.60;13.93;;;17.40;99.90;;;;;;5012977;28;20121;-94
2021/09/15 00:33:54;;;;;;;15.55;13.35;;;17.40;99.90;;;;;;5011681;28;20073;-96
2021/09/15 00:36:20;;;;;;;19.08;14.18;;;17.40;99.90;;;;;;5025806;28;20041;-96
2021/09/15 00:38:46;;;;;;;21.20;14.05;;;17.40;99.90;;;;;;5014349;28;20493;-93
2021/09/15 00:41:12;;;;;;;15.63;13.95;;;17.40;99.90;;;;;;5031210;28;20132;-94
2021/09/15 00:43:57;;;;;;;21.25;14.32;;;17.40;99.90;;;;;;5014128;28;20083;-93
2021/09/15 00:46:23;;;;;;;23.02;14.07;;;17.40;99.90;;;;;;5011434;28;20049;-92
2021/09/15 00:48:49;;;;;;;17.48;13.70;;;17.40;99.90;;;;;;5045511;28;20056;-96
2021/09/15 00:51:15;;;;;;;30.40;15.48;;;17.40;99.90;;;;;;5047975;28;20389;-94
2021/09/15 00:53:42;;;;;;;21.30;16.00;;;17.40;99.90;;;;;;4999935;28;20481;-94
2021/09/15 00:56:07;;;;;;;48.75;16.40;;;17.40;99.90;;;;;;5018195;28;20561;-94
2021/09/15 00:58:33;;;;;;;16.77;14.77;;;17.40;99.90;;;;;;5017414;28;20049;-95
2021/09/15 01:00:59;;;;;;;23.33;16.10;;;17.40;99.90;;;;;;5017681;28;20543;-94
2021/09/15 01:03:25;;;;;;;19.63;15.27;;;17.30;99.90;;;;;;5017712;28;20055;-93
2021/09/15 01:05:51;;;;;;;19.45;14.90;;;17.30;99.90;;;;;;5001468;28;20120;-94
2021/09/15 01:08:17;;;;;;;23.15;15.90;;;17.30;99.90;;;;;;5034325;28;20087;-95
2021/09/15 01:10:44;;;;;;;18.50;15.75;;;17.20;99.90;;;;;;5033540;28;20051;-95
2021/09/15 01:13:10;;;;;;;32.60;16.88;;;17.20;99.90;;;;;;5017366;28;20116;-96
2021/09/15 01:15:36;;;;;;;29.17;16.42;;;17.20;99.90;;;;;;5016625;28;20144;-96
2021/09/15 01:18:18;;;;;;;21.55;17.38;;;17.10;99.90;;;;;;5017280;28;20124;-94
2021/09/15 01:20:44;;;;;;;24.95;17.65;;;17.10;99.90;;;;;;5017211;28;20056;-93
2021/09/15 01:23:10;;;;;;;27.25;16.85;;;17.00;99.90;;;;;;5016607;28;20115;-95
2021/09/15 01:25:36;;;;;;;27.17;18.02;;;17.00;99.90;;;;;;5016740;28;20094;-94
2021/09/15 01:28:02;;;;;;;27.17;17.60;;;16.90;99.90;;;;;;5033489;28;20053;-95
2021/09/15 01:30:28;;;;;;;24.15;18.00;;;16.90;99.90;;;;;;5007620;28;20559;-95
2021/09/15 01:32:54;;;;;;;28.58;18.70;;;16.90;99.90;;;;;;5044187;28;20036;-94
2021/09/15 01:35:20;;;;;;;21.65;19.05;;;16.90;99.90;;;;;;5005331;28;20053;-94
2021/09/15 01:37:45;;;;;;;24.55;19.08;;;16.90;99.90;;;;;;4997151;28;20482;-94
2021/09/15 01:40:12;;;;;;;27.60;18.05;;;16.80;99.90;;;;;;5051048;28;20057;-94
2021/09/15 01:42:38;;;;;;;23.90;18.70;;;16.80;99.90;;;;;;5033378;28;20037;-94
2021/09/15 01:45:08;;;;;;;28.33;20.33;;;16.80;99.90;;;;;;5031109;28;20098;-93
2021/09/15 01:47:35;;;;;;;23.63;17.48;;;16.80;99.90;;;;;;5005570;28;20049;-94
2021/09/15 01:50:00;;;;;;;23.33;18.13;;;16.80;99.90;;;;;;5064941;28;20041;-94
2021/09/15 01:52:26;;;;;;;26.55;20.02;;;16.80;99.90;;;;;;5033972;28;20520;-95
2021/09/15 01:54:52;;;;;;;25.58;19.92;;;16.80;99.90;;;;;;5017314;28;20048;-94
2021/09/15 01:57:18;;;;;;;22.90;17.85;;;16.80;99.90;;;;;;4998286;28;20077;-96
2021/09/15 01:59:44;;;;;;;26.33;18.77;;;16.90;99.90;;;;;;5024623;28;20128;-96
2021/09/15 02:02:13;;;;;;;26.10;18.60;;;16.90;99.90;;;;;;5014321;28;20120;-96
2021/09/15 02:04:39;;;;;;;27.73;20.30;;;16.90;99.90;;;;;;5017242;28;20049;-96
2021/09/15 02:07:05;;;;;;;30.38;20.00;;;16.90;99.90;;;;;;5017348;28;20477;-94
2021/09/15 02:09:31;;;;;;;25.63;20.10;;;16.90;99.90;;;;;;5009751;28;20053;-91
2021/09/15 02:11:57;;;;;;;26.27;21.13;;;16.90;99.90;;;;;;5020981;28;20056;-95
2021/09/15 02:14:23;;;;;;;26.55;21.77;;;16.90;99.90;;;;;;5011030;28;20545;-95
2021/09/15 02:16:50;;;;;;;25.48;21.23;;;17.00;99.90;;;;;;5035395;28;20064;-94
2021/09/15 02:19:15;;;;;;;27.58;21.38;;;16.90;99.90;;;;;;5044943;28;20049;-95
2021/09/15 02:21:41;;;;;;;29.40;22.60;;;16.90;99.90;;;;;;5015790;28;20051;-95
2021/09/15 02:24:07;;;;;;;30.05;21.63;;;16.90;99.90;;;;;;5020644;28;20053;-92
2021/09/15 02:26:33;;;;;;;27.50;19.33;;;16.90;99.90;;;;;;5065546;28;20155;-92
2021/09/15 02:28:59;;;;;;;26.23;18.73;;;16.80;99.90;;;;;;4995678;28;20049;-92
2021/09/15 02:31:25;;;;;;;34.42;18.00;;;16.80;99.90;;;;;;5010395;28;20095;-94
2021/09/15 02:33:51;;;;;;;25.25;18.85;;;16.80;99.90;;;;;;5030007;28;20426;-94
2021/09/15 02:36:17;;;;;;;30.42;19.60;;;16.70;99.90;;;;;;5015633;28;20044;-94
2021/09/15 02:38:42;;;;;;;29.20;22.10;;;16.80;99.90;;;;;;5052798;28;20112;-95
2021/09/15 02:41:08;;;;;;;35.92;22.52;;;16.70;99.90;;;;;;5036811;28;20075;-93
2021/09/15 02:43:34;;;;;;;30.30;20.65;;;16.70;99.90;;;;;;5020296;28;20041;-94
2021/09/15 02:46:00;;;;;;;30.38;23.30;;;16.70;99.90;;;;;;5020843;28;20063;-95
2021/09/15 02:48:27;;;;;;;45.92;21.90;;;16.60;99.90;;;;;;5020803;28;20057;-94
2021/09/15 02:50:53;;;;;;;27.48;20.98;;;16.60;99.90;;;;;;5021096;28;20111;-95
2021/09/15 02:53:19;;;;;;;30.90;21.67;;;16.60;99.90;;;;;;5036630;28;20071;-96
2021/09/15 02:55:44;;;;;;;32.95;20.58;;;16.60;99.90;;;;;;5020567;28;20037;-95
2021/09/15 02:58:10;;;;;;;29.58;19.35;;;16.60;99.90;;;;;;5020662;28;20045;-94
2021/09/15 03:00:36;;;;;;;32.30;20.55;;;16.60;99.90;;;;;;5020309;28;20045;-92
2021/09/15 03:03:02;;;;;;;34.25;18.95;;;16.70;99.90;;;;;;5019977;28;20045;-95
2021/09/15 03:05:29;;;;;;;26.67;20.17;;;16.70;99.90;;;;;;5037018;28;20043;-93
2021/09/15 03:07:55;;;;;;;32.30;20.45;;;16.60;99.90;;;;;;5019425;28;20106;-94
2021/09/15 03:10:21;;;;;;;27.73;20.15;;;16.70;99.90;;;;;;5000362;28;20046;-94
2021/09/15 03:12:46;;;;;;;35.45;23.00;;;16.70;99.90;;;;;;5034117;28;20045;-94
2021/09/15 03:15:12;;;;;;;35.15;24.13;;;16.70;99.90;;;;;;5036410;28;20546;-95
2021/09/15 03:17:38;;;;;;;31.75;21.92;;;16.70;99.90;;;;;;5019145;28;20132;-93
2021/09/15 03:20:05;;;;;;;37.00;23.02;;;16.70;99.90;;;;;;5035702;28;20052;-94
2021/09/15 03:22:31;;;;;;;29.08;22.15;;;16.80;99.90;;;;;;5035521;28;20055;-94
2021/09/15 03:24:57;;;;;;;37.38;26.10;;;16.70;99.90;;;;;;5018811;28;20052;-94
2021/09/15 03:27:22;;;;;;;35.83;25.02;;;16.80;99.90;;;;;;5019299;28;20151;-94
2021/09/15 03:29:48;;;;;;;35.00;23.88;;;16.80;99.90;;;;;;5014760;28;20048;-94
2021/09/15 03:32:14;;;;;;;33.78;23.83;;;16.80;99.90;;;;;;5043346;28;20040;-93
2021/09/15 03:34:40;;;;;;;31.45;21.77;;;16.80;99.90;;;;;;5017944;28;20049;-93
2021/09/15 03:37:05;;;;;;;36.83;20.38;;;16.80;99.90;;;;;;5034870;28;20485;-95
2021/09/15 03:39:31;;;;;;;31.20;21.98;;;16.80;99.90;;;;;;5018077;28;20056;-93
2021/09/15 03:41:57;;;;;;;33.85;22.33;;;16.70;99.90;;;;;;5002079;28;20049;-92
2021/09/15 03:44:23;;;;;;;46.53;20.13;;;16.70;99.90;;;;;;5051656;28;20041;-93
2021/09/15 03:46:48;;;;;;;32.80;21.77;;;16.70;99.90;;;;;;4998319;28;20037;-92
2021/09/15 03:49:14;;;;;;;31.67;22.10;;;16.70;99.90;;;;;;5025846;28;20050;-92
2021/09/15 03:51:40;;;;;;;38.50;23.90;;;16.60;99.90;;;;;;5033477;28;20627;-93
2021/09/15 03:54:06;;;;;;;40.60;26.85;;;16.60;99.90;;;;;;4998523;28;20049;-92
2021/09/15 03:56:31;;;;;;;41.75;24.67;;;16.60;99.90;;;;;;5029547;28;20123;-92
2021/09/15 03:58:57;;;;;;;37.58;25.33;;;16.60;99.90;;;;;;5034226;28;20179;-94
2021/09/15 04:01:23;;;;;;;43.67;25.95;;;16.60;99.90;;;;;;5015523;28;20395;-94
2021/09/15 04:03:49;;;;;;;46.25;30.20;;;16.50;99.90;;;;;;5050967;28;20041;-94
2021/09/15 04:06:14;;;;;;;34.72;23.73;;;16.50;99.90;;;;;;5018819;28;20122;-94
2021/09/15 04:08:40;;;;;;;33.72;23.15;;;16.50;99.90;;;;;;5035198;28;20114;-94
2021/09/15 04:11:05;;;;;;;53.55;28.80;;;16.50;99.90;;;;;;5004742;28;20049;-94
2021/09/15 04:13:31;;;;;;;35.78;23.80;;;16.40;99.90;;;;;;5018539;28;20044;-93
2021/09/15 04:15:57;;;;;;;46.30;27.23;;;16.40;99.90;;;;;;5000869;28;20055;-93
2021/09/15 04:18:23;;;;;;;44.60;28.33;;;16.40;99.90;;;;;;5018535;28;20455;-95
2021/09/15 04:20:49;;;;;;;47.33;25.67;;;16.40;99.90;;;;;;5013896;28;20049;-94
2021/09/15 04:23:22;;;;;;;46.40;29.02;;;16.30;99.90;;;;;;5017521;28;20045;-94
2021/09/15 04:31:22;;;;;;;50.20;29.55;;;16.30;99.90;;;;;;5034047;28;20056;-94
2021/09/15 04:33:49;;;;;;;42.40;26.75;;;16.30;99.90;;;;;;5016323;28;20047;-91
2021/09/15 04:36:15;;;;;;;54.58;33.33;;;16.30;99.90;;;;;;5016910;28;20128;-92
2021/09/15 04:38:41;;;;;;;42.58;27.23;;;16.30;99.90;;;;;;5016444;28;20076;-92
2021/09/15 04:41:07;;;;;;;43.35;27.70;;;16.30;99.90;;;;;;5015916;28;20691;-92
2021/09/15 04:43:32;;;;;;;46.13;28.35;;;16.30;99.90;;;;;;5013505;28;20668;-91
2021/09/15 04:45:58;;;;;;;52.60;32.53;;;16.20;99.90;;;;;;5024439;28;20045;-93
2021/09/15 04:48:24;;;;;;;47.40;27.33;;;16.30;99.90;;;;;;5031835;28;20136;-91
2021/09/15 04:50:49;;;;;;;46.00;27.67;;;16.30;99.90;;;;;;4999210;28;20037;-91
2021/09/15 04:53:16;;;;;;;48.90;28.13;;;16.30;99.90;;;;;;4997218;28;20088;-92
2021/09/15 04:55:41;;;;;;;39.85;25.55;;;16.30;99.90;;;;;;5037791;28;20405;-94
2021/09/15 04:58:07;;;;;;;49.22;28.02;;;16.30;99.90;;;;;;5032829;28;20036;-91
2021/09/15 05:00:33;;;;;;;46.45;27.85;;;16.30;99.90;;;;;;5048265;28;20029;-93
2021/09/15 05:02:59;;;;;;;43.88;27.60;;;16.30;99.90;;;;;;5047264;28;20047;-94
2021/09/15 05:05:25;;;;;;;51.13;28.98;;;16.30;99.90;;;;;;5008465;28;20082;-94
2021/09/15 05:07:50;;;;;;;46.83;26.75;;;16.30;99.90;;;;;;5013793;28;20048;-93
2021/09/15 05:10:16;;;;;;;42.63;27.05;;;16.30;99.90;;;;;;5037562;28;20049;-94
2021/09/15 05:12:42;;;;;;;41.80;26.88;;;16.30;99.90;;;;;;4984902;28;20037;-95
2021/09/15 05:15:09;;;;;;;36.92;25.20;;;16.30;99.90;;;;;;5040690;28;20137;-93
2021/09/15 05:17:35;;;;;;;45.78;26.15;;;16.20;99.90;;;;;;5025680;28;20083;-95
2021/09/15 05:20:01;;;;;;;38.60;27.35;;;16.20;99.90;;;;;;5046313;28;20077;-92
2021/09/15 05:22:27;;;;;;;44.17;27.90;;;16.20;99.90;;;;;;5016346;28;20048;-93
2021/09/15 05:24:53;;;;;;;58.25;32.88;;;16.20;99.90;;;;;;5001267;28;20045;-91
2021/09/15 05:27:19;;;;;;;61.55;35.00;;;16.20;99.90;;;;;;5067643;28;20053;-95
2021/09/15 05:29:45;;;;;;;51.20;32.10;;;16.20;99.90;;;;;;5001917;28;20049;-95
2021/09/15 05:32:12;;;;;;;55.88;31.48;;;16.20;99.90;;;;;;5015172;28;20105;-95
2021/09/15 05:34:38;;;;;;;45.20;27.63;;;16.20;99.90;;;;;;5046195;28;20044;-96
2021/09/15 05:37:04;;;;;;;67.15;35.78;;;16.10;99.90;;;;;;5020140;28;20050;-96
2021/09/15 05:39:30;;;;;;;68.40;35.63;;;16.10;99.90;;;;;;5037826;28;20049;-94
2021/09/15 05:41:55;;;;;;;76.35;38.47;;;16.10;99.90;;;;;;5032241;28;20049;-94
2021/09/15 05:44:21;;;;;;;76.97;38.45;;;16.10;99.90;;;;;;5032738;28;20037;-95
2021/09/15 05:46:47;;;;;;;71.60;38.58;;;16.10;99.90;;;;;;4999763;28;20133;-94
2021/09/15 05:49:12;;;;;;;70.30;37.70;;;16.10;99.90;;;;;;5045631;28;20041;-95
2021/09/15 05:51:38;;;;;;;76.13;39.05;;;16.10;99.90;;;;;;4997204;28;20060;-95
2021/09/15 05:54:04;;;;;;;78.35;40.25;;;16.20;99.90;;;;;;5016921;28;20073;-95
2021/09/15 05:56:30;;;;;;;84.93;41.75;;;16.30;99.90;;;;;;5033072;28;20048;-96
2021/09/15 05:58:56;;;;;;;93.28;44.10;;;16.30;99.90;;;;;;5049305;28;20143;-93
2021/09/15 06:01:22;;;;;;;82.85;43.00;;;16.40;99.90;;;;;;5032354;28;20083;-96
2021/09/15 06:03:47;;;;;;;85.55;41.92;;;16.40;99.90;;;;;;5031243;28;20059;-93
2021/09/15 06:06:13;;;;;;;87.88;41.15;;;16.40;99.90;;;;;;5001980;28;20052;-94
2021/09/15 06:08:39;;;;;;;68.45;36.67;;;16.50;99.90;;;;;;5034708;28;20077;-95
2021/09/15 06:11:04;;;;;;;48.72;29.80;;;16.60;99.90;;;;;;5017039;28;20087;-95
2021/09/15 06:13:30;;;;;;;52.38;31.10;;;16.60;99.90;;;;;;5061260;28;20099;-96
2021/09/15 06:15:56;;;;;;;48.38;30.40;;;16.60;99.90;;;;;;5020603;28;20056;-94
2021/09/15 06:18:23;;;;;;;51.80;29.73;;;16.70;99.90;;;;;;5020861;28;20052;-95
2021/09/15 06:20:48;;;;;;;56.85;32.83;;;16.70;99.90;;;;;;5020654;28;20052;-94
2021/09/15 06:23:14;;;;;;;68.60;36.58;;;16.80;99.90;;;;;;5017295;28;20046;-96
2021/09/15 06:25:43;;;;;;;77.88;40.38;;;16.80;99.90;;;;;;5000259;28;20053;-95
2021/09/15 06:28:10;;;;;;;76.03;41.15;;;16.90;99.90;;;;;;5035184;28;20045;-95
2021/09/15 06:30:35;;;;;;;67.68;36.58;;;16.90;99.90;;;;;;5012838;28;20053;-93
2021/09/15 06:33:01;;;;;;;57.30;32.58;;;17.00;99.90;;;;;;5033671;28;20038;-96
2021/09/15 06:35:27;;;;;;;58.55;33.22;;;17.10;99.90;;;;;;5023677;28;20052;-96
2021/09/15 06:37:53;;;;;;;65.35;35.17;;;17.10;99.90;;;;;;5032537;28;20045;-96
2021/09/15 06:40:18;;;;;;;53.58;32.45;;;17.20;99.90;;;;;;5020533;28;20658;-95
2021/09/15 06:42:44;;;;;;;58.20;33.47;;;17.30;99.90;;;;;;5020295;28;20048;-95
2021/09/15 06:45:10;;;;;;;61.88;33.75;;;17.40;99.90;;;;;;4988054;28;20401;-96
2021/09/15 06:47:41;;;;;;;57.30;29.85;;;17.40;99.90;;;;;;5055099;28;20091;-95
2021/09/15 06:50:08;;;;;;;56.97;34.53;;;17.50;99.90;;;;;;5056125;28;20106;-94
2021/09/15 06:52:34;;;;;;;55.78;33.70;;;17.60;99.90;;;;;;5041990;28;20045;-93
2021/09/15 06:55:00;;;;;;;57.85;32.95;;;17.60;99.90;;;;;;5031784;28;20056;-92
2021/09/15 06:57:25;;;;;;;64.60;34.78;;;17.70;99.90;;;;;;5016542;28;20041;-94
2021/09/15 06:59:51;;;;;;;59.28;33.67;;;17.70;99.90;;;;;;5048520;28;20481;-95
2021/09/15 07:02:16;;;;;;;61.42;36.17;;;17.70;99.90;;;;;;5048732;28;20080;-94
2021/09/15 07:04:42;;;;;;;55.95;33.58;;;17.80;99.90;;;;;;5015269;28;20064;-95
2021/09/15 07:07:08;;;;;;;50.17;28.98;;;17.90;99.90;;;;;;4998092;28;20067;-95
2021/09/15 07:09:33;;;;;;;53.33;33.08;;;17.90;99.90;;;;;;5042787;28;20033;-94
2021/09/15 07:12:00;;;;;;;54.63;32.65;;;17.90;99.90;;;;;;5005345;28;20065;-94
2021/09/15 07:14:25;;;;;;;46.97;29.60;;;18.00;99.90;;;;;;5034334;28;20045;-94
2021/09/15 07:16:51;;;;;;;51.40;30.17;;;18.00;99.90;;;;;;5013666;28;20487;-94
2021/09/15 07:19:17;;;;;;;48.30;30.75;;;18.10;99.90;;;;;;5029076;28;20049;-94
2021/09/15 07:21:42;;;;;;;42.17;29.60;;;18.10;99.90;;;;;;4992658;28;20049;-94
2021/09/15 07:24:08;;;;;;;47.85;31.25;;;18.10;99.90;;;;;;5026867;28;20053;-94
2021/09/15 07:26:34;;;;;;;40.97;27.92;;;18.20;99.90;;;;;;5000531;28;20037;-95
2021/09/15 07:28:59;;;;;;;53.78;30.48;;;18.30;99.90;;;;;;5016203;28;20492;-95
2021/09/15 07:31:25;;;;;;;49.78;29.48;;;18.30;99.90;;;;;;4997240;28;20037;-94
2021/09/15 07:33:51;;;;;;;42.85;27.73;;;18.40;99.90;;;;;;5033118;28;20041;-89
2021/09/15 07:36:17;;;;;;;46.53;27.27;;;18.40;99.90;;;;;;4997468;28;20053;-90
2021/09/15 07:38:43;;;;;;;41.15;26.48;;;18.50;99.90;;;;;;5020971;28;20393;-91
2021/09/15 07:41:08;;;;;;;39.47;26.70;;;18.50;99.90;;;;;;5031701;28;20556;-92
2021/09/15 07:43:34;;;;;;;39.55;28.13;;;18.60;99.90;;;;;;5015775;28;20045;-90
2021/09/15 07:46:00;;;;;;;41.70;26.70;;;18.70;99.90;;;;;;4996307;28;20054;-91
2021/09/15 07:48:25;;;;;;;38.17;25.42;;;18.80;99.90;;;;;;5043628;28;20046;-90
2021/09/15 07:50:51;;;;;;;41.13;25.80;;;19.00;99.90;;;;;;5006077;28;20041;-92
2021/09/15 07:53:20;;;;;;;41.40;25.08;;;19.10;99.90;;;;;;5013542;28;20064;-89
2021/09/15 07:55:46;;;;;;;40.57;26.53;;;19.10;99.90;;;;;;5046109;28;20415;-92
2021/09/15 07:58:12;;;;;;;35.95;25.13;;;19.20;99.90;;;;;;5048288;28;20277;-92
2021/09/15 08:00:37;;;;;;;41.83;26.38;;;19.30;99.90;;;;;;5031094;28;20115;-93
2021/09/15 08:03:03;;;;;;;43.47;27.08;;;19.30;99.90;;;;;;5021112;28;20050;-94
2021/09/15 08:05:29;;;;;;;45.33;26.02;;;19.30;99.90;;;;;;5014088;28;20041;-93
2021/09/15 08:07:56;;;;;;;41.67;25.83;;;19.30;99.90;;;;;;5031847;28;20041;-92
2021/09/15 08:10:23;;;;;;;43.80;25.58;;;19.30;99.90;;;;;;5028437;28;20096;-93
2021/09/15 08:12:48;;;;;;;41.58;26.02;;;19.40;99.90;;;;;;5015731;28;20048;-92
2021/09/15 08:15:14;;;;;;;39.47;26.08;;;19.40;99.90;;;;;;5048554;28;20049;-92
2021/09/15 08:17:40;;;;;;;38.30;24.67;;;19.50;99.90;;;;;;4997020;28;20061;-93
2021/09/15 08:20:06;;;;;;;36.35;24.55;;;19.50;99.90;;;;;;5031869;28;20520;-91
2021/09/15 08:22:32;;;;;;;40.90;24.85;;;19.60;99.90;;;;;;4999034;28;20059;-93
2021/09/15 08:24:58;;;;;;;39.83;26.38;;;19.60;99.90;;;;;;5040093;28;20045;-96
2021/09/15 08:27:24;;;;;;;39.17;26.25;;;19.80;99.90;;;;;;4996133;28;20103;-94
2021/09/15 08:29:49;;;;;;;46.10;26.38;;;19.90;99.90;;;;;;5013681;28;20071;-95
2021/09/15 08:32:15;;;;;;;43.85;26.55;;;19.90;99.90;;;;;;5029653;28;20610;-96
2021/09/15 08:34:41;;;;;;;47.78;27.42;;;20.00;99.90;;;;;;5030782;28;20063;-96
2021/09/15 08:37:07;;;;;;;45.45;27.13;;;20.10;99.90;;;;;;5043116;28;20057;-94
2021/09/15 08:39:33;;;;;;;55.28;28.15;;;20.20;99.90;;;;;;5024116;28;20565;-95
2021/09/15 08:41:59;;;;;;;44.88;28.73;;;20.30;99.90;;;;;;5031066;28;20057;-95
2021/09/15 08:44:24;;;;;;;46.38;28.42;;;20.40;99.90;;;;;;5042357;28;20049;-94
2021/09/15 08:46:56;;;;;;;41.15;27.95;;;20.40;99.90;;;;;;5028205;28;20037;-94
2021/09/15 08:49:23;;;;;;;44.60;28.42;;;20.40;99.90;;;;;;5028814;28;20052;-91
2021/09/15 08:51:49;;;;;;;48.85;28.73;;;20.50;99.90;;;;;;5013888;28;20089;-90
2021/09/15 08:54:14;;;;;;;43.13;28.58;;;20.60;99.90;;;;;;5058871;28;20088;-91
2021/09/15 08:56:41;;;;;;;44.90;28.27;;;20.70;99.90;;;;;;5027152;28;20056;-91
2021/09/15 08:59:07;;;;;;;45.65;29.52;;;20.80;99.90;;;;;;5011598;28;20897;-94
2021/09/15 09:01:33;;;;;;;46.92;28.80;;;20.80;99.90;;;;;;5012258;28;20050;-90
2021/09/15 09:03:59;;;;;;;43.03;27.67;;;20.70;99.90;;;;;;5056239;28;20045;-91
2021/09/15 09:06:33;;;;;;;41.90;26.58;;;20.70;99.90;;;;;;5035444;28;20046;-91
2021/09/15 09:09:02;;;;;;;42.88;27.50;;;20.80;99.90;;;;;;5008655;28;20524;-91
2021/09/15 09:11:31;;;;;;;45.90;28.83;;;20.80;99.90;;;;;;5010904;28;20398;-92
2021/09/15 09:14:00;;;;;;;41.50;27.48;;;21.00;99.90;;;;;;5024531;28;20049;-91
2021/09/15 09:16:45;;;;;;;40.92;25.35;;;21.00;99.90;;;;;;5029920;28;20172;-91
2021/09/15 09:19:16;;;;;;;42.85;27.92;;;21.20;99.90;;;;;;5063051;28;20046;-93
2021/09/15 09:21:47;;;;;;;44.17;27.92;;;21.30;99.90;;;;;;5029829;28;20056;-91
2021/09/15 09:24:17;;;;;;;46.78;28.13;;;21.30;99.90;;;;;;5014548;28;20049;-92
2021/09/15 09:27:01;;;;;;;42.70;28.17;;;21.30;99.90;;;;;;5011472;28;20062;-93
2021/09/15 09:29:33;;;;;;;43.88;28.85;;;21.40;99.90;;;;;;5030244;28;20734;-93
2021/09/15 09:32:09;;;;;;;42.60;27.38;;;21.40;99.90;;;;;;5014211;28;20064;-96
2021/09/15 09:34:49;;;;;;;41.00;27.98;;;21.40;99.90;;;;;;5062608;28;20524;-94
2021/09/15 09:37:18;;;;;;;38.83;26.25;;;21.40;99.90;;;;;;5053677;28;20049;-94
2021/09/15 09:39:48;;;;;;;44.58;28.73;;;21.40;99.90;;;;;;5027614;28;20057;-93
2021/09/15 09:42:23;;;;;;;44.70;29.60;;;21.40;99.90;;;;;;5011056;28;20455;-92
2021/09/15 09:44:50;;;;;;;57.00;32.10;;;21.30;99.90;;;;;;5030680;28;20485;-93
2021/09/15 09:47:22;;;;;;;46.75;30.73;;;21.20;99.90;;;;;;5033995;28;20504;-92
2021/09/15 09:50:14;;;;;;;44.38;29.73;;;21.20;99.90;;;;;;5034605;28;20133;-93
2021/09/15 09:53:09;;;;;;;51.78;30.60;;;21.20;99.90;;;;;;5033333;28;20060;-92
2021/09/15 09:55:37;;;;;;;47.95;29.02;;;21.40;99.90;;;;;;5029335;28;20054;-93
2021/09/15 09:58:05;;;;;;;50.42;30.73;;;21.40;99.90;;;;;;5015556;28;20629;-93
2021/09/15 10:00:32;;;;;;;49.00;29.05;;;21.50;99.90;;;;;;5016569;28;20040;-93
2021/09/15 10:02:58;;;;;;;52.65;30.00;;;21.60;99.90;;;;;;5067249;28;20053;-93
2021/09/15 10:05:24;;;;;;;52.97;30.75;;;21.70;99.90;;;;;;5033196;28;20041;-93
2021/09/15 10:07:50;;;;;;;47.47;29.80;;;21.70;99.90;;;;;;5000925;28;20136;-93
2021/09/15 10:10:19;;;;;;;47.63;29.80;;;21.70;99.90;;;;;;5014237;28;20053;-91
2021/09/15 10:12:45;;;;;;;38.35;27.55;;;21.70;99.90;;;;;;5044075;28;20037;-89
2021/09/15 10:15:13;;;;;;;35.78;26.00;;;21.60;99.90;;;;;;5024566;28;20077;-92
2021/09/15 10:17:48;;;;;;;42.72;27.80;;;21.60;99.90;;;;;;5038927;28;20096;-96
2021/09/15 10:20:15;;;;;;;42.85;26.88;;;21.60;99.90;;;;;;5028789;28;20049;-92
2021/09/15 10:22:48;;;;;;;38.65;27.05;;;21.70;99.90;;;;;;5012870;28;20048;-95
2021/09/15 10:25:14;;;;;;;36.03;24.42;;;21.80;99.90;;;;;;5013874;28;20041;-95
2021/09/15 10:27:59;;;;;;;36.28;25.13;;;21.80;99.90;;;;;;5031997;28;20038;-94
2021/09/15 10:30:39;;;;;;;35.17;24.80;;;21.80;99.90;;;;;;5032093;28;20073;-96
2021/09/15 10:33:05;;;;;;;34.67;25.02;;;21.80;99.90;;;;;;5016176;28;20052;-95
2021/09/15 10:35:47;;;;;;;36.58;22.75;;;21.80;99.90;;;;;;5032172;28;20042;-91
2021/09/15 10:38:14;;;;;;;31.27;22.95;;;21.80;99.90;;;;;;4999759;28;20567;-91
2021/09/15 10:40:42;;;;;;;39.90;24.73;;;21.90;99.90;;;;;;5014907;28;20050;-92
2021/09/15 10:43:42;;;;;;;34.05;24.02;;;21.90;99.90;;;;;;5032704;28;20441;-90
2021/09/15 10:46:20;;;;;;;34.58;24.70;;;21.90;99.90;;;;;;5033128;28;20079;-92
2021/09/15 10:48:46;;;;;;;32.83;23.48;;;21.90;99.90;;;;;;5015337;28;20077;-91
2021/09/15 10:51:21;;;;;;;35.47;24.65;;;21.80;99.90;;;;;;4997509;28;20100;-91
2021/09/15 10:53:47;;;;;;;31.88;24.33;;;21.80;99.90;;;;;;5033440;28;20057;-91
2021/09/15 10:56:36;;;;;;;38.58;25.40;;;21.80;99.90;;;;;;5019274;28;20508;-91
2021/09/15 10:59:01;;;;;;;37.05;24.20;;;21.80;99.90;;;;;;5067432;28;20103;-92
2021/09/15 11:01:39;;;;;;;32.53;24.77;;;21.80;99.90;;;;;;5018863;28;20497;-92
2021/09/15 11:04:04;;;;;;;37.45;24.80;;;21.80;99.90;;;;;;5033366;28;20053;-91
2021/09/15 11:06:35;;;;;;;31.13;23.15;;;21.90;99.90;;;;;;5035408;28;20033;-92
2021/09/15 11:09:01;;;;;;;31.65;23.98;;;21.90;99.90;;;;;;5023798;28;20091;-92
2021/09/15 11:11:27;;;;;;;29.63;22.25;;;22.00;99.90;;;;;;5019428;28;20091;-93
2021/09/15 11:13:56;;;;;;;34.30;22.80;;;22.00;99.90;;;;;;5018597;28;20040;-93
2021/09/15 11:16:38;;;;;;;35.88;22.35;;;22.10;99.90;;;;;;5021791;28;20119;-93
2021/09/15 11:19:08;;;;;;;30.15;22.75;;;22.30;99.90;;;;;;5035251;28;20200;-93
2021/09/15 11:21:46;;;;;;;30.98;21.08;;;22.40;99.90;;;;;;5035185;28;20045;-93
2021/09/15 11:24:15;;;;;;;28.30;20.88;;;22.40;99.90;;;;;;5035254;28;20048;-94
2021/09/15 11:26:49;;;;;;;27.02;21.17;;;22.50;99.90;;;;;;5034706;28;20104;-93
2021/09/15 11:29:35;;;;;;;33.42;20.88;;;22.50;99.90;;;;;;5035174;28;20071;-94
2021/09/15 11:32:01;;;;;;;28.65;20.70;;;22.50;99.90;;;;;;5034124;28;20041;-93
2021/09/15 11:34:27;;;;;;;28.65;20.13;;;22.60;99.90;;;;;;5037851;28;20045;-94
2021/09/15 11:36:53;;;;;;;26.58;20.40;;;22.70;99.90;;;;;;5035480;28;20041;-94
2021/09/15 11:39:23;;;;;;;27.30;19.20;;;22.80;99.90;;;;;;5015385;28;20038;-93
2021/09/15 11:41:49;;;;;;;24.92;18.75;;;22.80;99.90;;;;;;5018124;28;20052;-94
2021/09/15 11:44:15;;;;;;;25.98;17.83;;;22.90;99.90;;;;;;5035196;28;20049;-94
2021/09/15 11:46:40;;;;;;;26.20;17.67;;;23.00;99.90;;;;;;5015090;28;20176;-94
2021/09/15 11:49:06;;;;;;;24.90;17.65;;;23.00;99.90;;;;;;5016804;28;20049;-94
2021/09/15 11:51:35;;;;;;;23.65;16.33;;;23.00;99.90;;;;;;5030338;28;20057;-94
2021/09/15 11:54:14;;;;;;;21.00;16.15;;;23.10;99.90;;;;;;5034823;28;20101;-94
2021/09/15 11:59:17;;;;;;;22.60;15.82;;;23.20;99.90;;;;;;5015647;28;20572;-93
2021/09/15 12:01:44;;;;;;;19.30;15.70;;;23.10;99.90;;;;;;5039214;28;20053;-94
2021/09/15 12:04:15;;;;;;;28.73;15.77;;;23.20;99.90;;;;;;5018566;28;20045;-93
2021/09/15 12:06:42;;;;;;;20.60;16.15;;;23.30;99.90;;;;;;5033026;28;20041;-93
2021/09/15 12:09:09;;;;;;;19.58;16.08;;;23.40;99.90;;;;;;5029712;28;20053;-93
2021/09/15 12:11:41;;;;;;;36.17;22.75;;;23.30;99.90;;;;;;5017421;28;20055;-93
2021/09/15 12:14:09;;;;;;;37.97;25.63;;;23.00;99.90;;;;;;5018273;28;20053;-93
2021/09/15 12:16:41;;;;;;;38.67;27.08;;;22.80;99.90;;;;;;5047676;28;20057;-93
2021/09/15 12:19:21;;;;;;;42.10;27.10;;;22.50;99.90;;;;;;5034114;28;20048;-93
2021/09/15 12:21:49;;;;;;;36.28;25.95;;;22.50;99.90;;;;;;5023949;28;20049;-93
2021/09/15 12:24:16;;;;;;;37.83;24.90;;;22.40;99.90;;;;;;5043311;28;20043;-93
2021/09/15 12:26:42;;;;;;;38.75;25.13;;;22.40;99.90;;;;;;5014646;28;20512;-93
2021/09/15 12:29:20;;;;;;;40.33;22.90;;;22.50;99.90;;;;;;5048802;28;20057;-93
2021/09/15 12:31:49;;;;;;;33.67;22.50;;;22.60;99.90;;;;;;5031926;28;20037;-94
2021/09/15 12:34:32;;;;;;;34.58;22.67;;;22.70;99.90;;;;;;5034268;28;20157;-93
2021/09/15 12:37:18;;;;;;;33.58;22.40;;;22.80;99.90;;;;;;5025583;28;20037;-93
2021/09/15 12:39:52;;;;;;;30.98;22.05;;;23.00;99.90;;;;;;5050477;28;20558;-93